Time;durP1;ratioP1;P1;durP2;ratioP2;P2;SDS_P1;SDS_P2;PMS_P1;PMS_P2;Temp;Humidity;BMP_temperature;BMP_pressure;BME280_temperature;BME280_humidity;BME280_pressure;Samples;Min_cycle;Max_cycle;Signal;HPM_P1;HPM_P2
2023/11/04 00:00:19;;;;;;;2.65;1.38;;;10.30;99.90;;;;;;2108686;28;20024;-71
2023/11/04 00:01:20;;;;;;;7.03;2.00;;;10.30;99.90;;;;;;2108673;28;20027;-71
2023/11/04 00:02:21;;;;;;;1.70;1.20;;;10.30;99.90;;;;;;2108685;28;20050;-72
2023/11/04 00:03:21;;;;;;;4.93;1.38;;;10.30;99.90;;;;;;2107740;28;20238;-71
2023/11/04 00:04:22;;;;;;;4.80;1.30;;;10.30;99.90;;;;;;2109739;28;20028;-72
2023/11/04 00:05:22;;;;;;;3.72;1.40;;;10.20;99.90;;;;;;2108620;28;20039;-70
2023/11/04 00:06:23;;;;;;;3.53;1.52;;;10.20;99.90;;;;;;2099806;28;20025;-71
2023/11/04 00:07:24;;;;;;;3.53;1.48;;;10.20;99.90;;;;;;2100559;28;20115;-70
2023/11/04 00:08:26;;;;;;;3.20;1.30;;;10.20;99.90;;;;;;2101507;28;20024;-71
2023/11/04 00:09:26;;;;;;;6.28;1.52;;;10.20;99.90;;;;;;2106347;28;20019;-72
2023/11/04 00:10:27;;;;;;;1.73;1.23;;;10.20;99.90;;;;;;2108888;28;20105;-71
2023/11/04 00:11:27;;;;;;;5.45;1.90;;;10.20;99.90;;;;;;2106768;28;20031;-71
2023/11/04 00:12:28;;;;;;;2.95;1.30;;;10.20;99.90;;;;;;2107716;28;20032;-70
2023/11/04 00:13:28;;;;;;;4.70;1.63;;;10.20;99.90;;;;;;2109137;28;20016;-72
2023/11/04 00:14:29;;;;;;;2.10;1.25;;;10.20;99.90;;;;;;2107318;28;20032;-71
2023/11/04 00:15:30;;;;;;;7.00;2.25;;;10.20;99.90;;;;;;2109490;28;20023;-69
2023/11/04 00:16:30;;;;;;;3.15;1.30;;;10.20;99.90;;;;;;2109506;28;20030;-71
2023/11/04 00:17:31;;;;;;;2.53;0.98;;;10.20;99.90;;;;;;2108554;28;20069;-71
2023/11/04 00:18:32;;;;;;;3.58;1.20;;;10.10;99.90;;;;;;2104340;28;20403;-71
2023/11/04 00:19:32;;;;;;;2.50;1.30;;;10.10;99.90;;;;;;2100779;28;20051;-72
2023/11/04 00:20:33;;;;;;;3.00;1.40;;;10.10;99.90;;;;;;2098216;28;20115;-71
2023/11/04 00:21:33;;;;;;;4.03;1.52;;;10.10;99.90;;;;;;2100017;28;20027;-71
2023/11/04 00:22:34;;;;;;;3.85;1.20;;;10.20;99.90;;;;;;2106190;28;20024;-71
2023/11/04 00:23:35;;;;;;;2.72;1.60;;;10.10;99.90;;;;;;2109537;28;20101;-71
2023/11/04 00:24:36;;;;;;;3.13;1.40;;;10.10;99.90;;;;;;2110010;28;20139;-71
2023/11/04 00:25:37;;;;;;;3.05;1.50;;;10.10;99.90;;;;;;2108478;28;20023;-71
2023/11/04 00:26:38;;;;;;;3.58;1.23;;;10.10;99.90;;;;;;2108320;28;20027;-71
2023/11/04 00:27:38;;;;;;;5.15;1.23;;;10.10;99.90;;;;;;2108089;28;20110;-70
2023/11/04 00:28:39;;;;;;;3.03;1.38;;;10.10;99.90;;;;;;2100182;28;20024;-71
2023/11/04 00:29:39;;;;;;;3.88;1.30;;;10.10;99.90;;;;;;2099218;28;20039;-71
2023/11/04 00:30:40;;;;;;;3.17;1.52;;;10.10;99.90;;;;;;2108229;28;20039;-70
2023/11/04 00:31:40;;;;;;;3.80;1.55;;;10.10;99.90;;;;;;2108162;28;20584;-70
2023/11/04 00:32:41;;;;;;;3.95;1.42;;;10.10;99.90;;;;;;2100005;28;20063;-70
2023/11/04 00:33:41;;;;;;;4.03;1.40;;;10.10;99.90;;;;;;2099706;28;20542;-71
2023/11/04 00:34:42;;;;;;;5.75;1.48;;;10.10;99.90;;;;;;2107822;28;20031;-70
2023/11/04 00:35:43;;;;;;;3.67;1.40;;;10.10;99.90;;;;;;2107023;28;20379;-70
2023/11/04 00:36:44;;;;;;;3.97;1.40;;;10.10;99.90;;;;;;2106743;28;20032;-70
2023/11/04 00:37:46;;;;;;;2.75;1.85;;;10.00;99.90;;;;;;2103015;28;20067;-71
2023/11/04 00:38:47;;;;;;;5.80;1.65;;;10.10;99.90;;;;;;2102808;28;20020;-71
2023/11/04 00:39:47;;;;;;;2.85;1.30;;;10.10;99.90;;;;;;2108507;28;20052;-70
2023/11/04 00:40:48;;;;;;;3.47;1.40;;;10.10;99.90;;;;;;2106249;28;20031;-70
2023/11/04 00:41:48;;;;;;;2.00;1.20;;;10.10;99.90;;;;;;2107254;28;20028;-71
2023/11/04 00:42:49;;;;;;;3.47;1.17;;;10.10;99.90;;;;;;2100738;28;20024;-71
2023/11/04 00:43:50;;;;;;;4.13;1.17;;;10.10;99.90;;;;;;2100158;28;20029;-71
2023/11/04 00:44:50;;;;;;;1.75;1.00;;;10.10;99.90;;;;;;2107847;28;20028;-72
2023/11/04 00:45:51;;;;;;;3.20;1.27;;;10.10;99.90;;;;;;2107699;28;20456;-71
2023/11/04 00:46:53;;;;;;;3.03;1.15;;;10.10;99.90;;;;;;2104115;28;20020;-70
2023/11/04 00:47:53;;;;;;;1.85;0.80;;;10.10;99.90;;;;;;2107565;28;20043;-71
2023/11/04 00:48:54;;;;;;;3.45;1.20;;;10.10;99.90;;;;;;2107707;28;20034;-71
2023/11/04 00:49:55;;;;;;;3.40;1.00;;;10.10;99.90;;;;;;2102975;28;20032;-71
2023/11/04 00:50:56;;;;;;;2.95;0.95;;;10.10;99.90;;;;;;2095752;28;20060;-70
2023/11/04 00:51:56;;;;;;;3.45;1.05;;;10.10;99.90;;;;;;2100318;28;20028;-71
2023/11/04 00:52:57;;;;;;;1.70;1.00;;;10.10;99.90;;;;;;2100843;28;20024;-71
2023/11/04 00:53:58;;;;;;;1.25;0.90;;;10.10;99.90;;;;;;2100250;28;20050;-72
2023/11/04 00:54:58;;;;;;;3.67;1.23;;;10.10;99.90;;;;;;2107828;27;20436;-72
2023/11/04 00:55:59;;;;;;;2.58;1.00;;;10.10;99.90;;;;;;2108150;28;20031;-70
2023/11/04 00:57:00;;;;;;;1.60;0.90;;;10.10;99.90;;;;;;2109205;28;20121;-70
2023/11/04 00:58:01;;;;;;;1.90;0.90;;;10.10;99.90;;;;;;2107355;28;20036;-72
2023/11/04 00:59:01;;;;;;;3.03;1.13;;;10.10;99.90;;;;;;2107408;28;20032;-70
2023/11/04 01:00:04;;;;;;;2.30;1.27;;;10.20;99.90;;;;;;2107226;28;20025;-70
2023/11/04 01:01:07;;;;;;;1.25;1.13;;;10.20;99.90;;;;;;2108763;28;20359;-72
2023/11/04 01:02:10;;;;;;;1.38;0.70;;;10.20;99.90;;;;;;2109986;28;20011;-71
2023/11/04 01:03:10;;;;;;;3.10;0.90;;;10.20;99.90;;;;;;2106039;28;20016;-71
2023/11/04 01:04:11;;;;;;;2.25;0.90;;;10.20;99.90;;;;;;2110494;28;20131;-70
2023/11/04 01:05:11;;;;;;;2.85;0.90;;;10.20;99.90;;;;;;2108603;28;20036;-71
2023/11/04 01:06:12;;;;;;;1.88;1.00;;;10.20;99.90;;;;;;2103090;28;20040;-70
2023/11/04 01:07:13;;;;;;;3.83;0.88;;;10.20;99.90;;;;;;2103942;28;20043;-71
2023/11/04 01:08:13;;;;;;;3.10;0.70;;;10.20;99.90;;;;;;2099184;28;20558;-70
2023/11/04 01:09:15;;;;;;;3.45;1.13;;;10.20;99.90;;;;;;2099160;28;20051;-72
2023/11/04 01:10:16;;;;;;;4.28;1.40;;;10.20;99.90;;;;;;2106952;28;20099;-71
2023/11/04 01:11:19;;;;;;;3.03;1.23;;;10.20;99.90;;;;;;2105925;28;20024;-71
2023/11/04 01:12:20;;;;;;;1.80;0.90;;;10.20;99.90;;;;;;2107183;28;20016;-70
2023/11/04 01:13:21;;;;;;;1.02;0.75;;;10.20;99.90;;;;;;2109239;28;20019;-70
2023/11/04 01:14:22;;;;;;;2.75;0.70;;;10.20;99.90;;;;;;2107373;28;20508;-70
2023/11/04 01:15:22;;;;;;;2.05;0.68;;;10.30;99.90;;;;;;2109968;28;20406;-71
2023/11/04 01:16:23;;;;;;;1.40;0.77;;;10.20;99.90;;;;;;2102723;28;20456;-70
2023/11/04 01:17:24;;;;;;;1.30;0.70;;;10.30;99.90;;;;;;2096253;28;20112;-71
2023/11/04 01:18:24;;;;;;;2.55;1.13;;;10.30;99.90;;;;;;2101802;28;20638;-70
2023/11/04 01:19:25;;;;;;;0.77;0.77;;;10.30;99.90;;;;;;2107814;28;20085;-71
2023/11/04 01:20:25;;;;;;;1.42;0.80;;;10.30;99.90;;;;;;2099107;28;20103;-72
2023/11/04 01:21:26;;;;;;;1.63;1.00;;;10.20;99.90;;;;;;2099092;28;21733;-70
2023/11/04 01:22:27;;;;;;;1.30;0.70;;;10.30;99.90;;;;;;2103281;28;20486;-72
2023/11/04 01:23:27;;;;;;;1.85;0.70;;;10.30;99.90;;;;;;2103179;28;20020;-71
2023/11/04 01:24:28;;;;;;;1.13;0.70;;;10.30;99.90;;;;;;2107355;28;20028;-72
2023/11/04 01:25:29;;;;;;;1.65;0.60;;;10.30;99.90;;;;;;2108036;28;20113;-72
2023/11/04 01:26:30;;;;;;;0.82;0.82;;;10.30;99.90;;;;;;2106797;28;20028;-71
2023/11/04 01:27:31;;;;;;;0.65;0.60;;;10.30;99.90;;;;;;2108995;28;20095;-71
2023/11/04 01:28:31;;;;;;;1.33;0.63;;;10.30;99.90;;;;;;2108285;28;20058;-71
2023/11/04 01:29:32;;;;;;;1.23;0.70;;;10.30;99.90;;;;;;2107471;28;20035;-70
2023/11/04 01:30:33;;;;;;;1.15;0.70;;;10.30;99.90;;;;;;2108075;28;20047;-70
2023/11/04 01:31:33;;;;;;;1.80;0.80;;;10.30;99.90;;;;;;2109130;28;20442;-70
2023/11/04 01:32:34;;;;;;;0.75;0.70;;;10.30;99.90;;;;;;2102346;28;20447;-71
2023/11/04 01:33:34;;;;;;;2.55;0.60;;;10.30;99.90;;;;;;2099718;28;20561;-71
2023/11/04 01:34:35;;;;;;;0.68;0.50;;;10.30;99.90;;;;;;2106754;28;20035;-71
2023/11/04 01:35:35;;;;;;;1.20;0.55;;;10.30;99.90;;;;;;2106839;28;20403;-71
2023/11/04 01:36:36;;;;;;;1.60;0.70;;;10.30;99.90;;;;;;2105956;28;20043;-71
2023/11/04 01:37:37;;;;;;;1.13;0.60;;;10.30;99.90;;;;;;2108473;28;20032;-71
2023/11/04 01:38:37;;;;;;;2.33;0.80;;;10.30;99.90;;;;;;2107016;28;20063;-71
2023/11/04 01:39:38;;;;;;;0.63;0.50;;;10.30;99.90;;;;;;2108523;28;20048;-71
2023/11/04 01:40:39;;;;;;;1.33;0.47;;;10.40;99.90;;;;;;2101350;28;20032;-71
2023/11/04 01:41:40;;;;;;;0.77;0.50;;;10.40;99.90;;;;;;2101444;28;20024;-71
2023/11/04 01:42:44;;;;;;;1.15;0.52;;;10.40;99.90;;;;;;2108333;28;20034;-71
2023/11/04 01:43:44;;;;;;;0.65;0.40;;;10.40;99.90;;;;;;2106779;28;20028;-71
2023/11/04 01:44:45;;;;;;;0.77;0.30;;;10.40;99.90;;;;;;2106733;28;20024;-70
2023/11/04 01:45:46;;;;;;;1.80;0.55;;;10.40;99.90;;;;;;2108157;28;20027;-71
2023/11/04 01:46:47;;;;;;;0.90;0.43;;;10.40;99.90;;;;;;2101254;28;20044;-71
2023/11/04 01:47:48;;;;;;;0.68;0.47;;;10.40;99.90;;;;;;2100382;28;20455;-71
2023/11/04 01:48:49;;;;;;;0.63;0.40;;;10.40;99.90;;;;;;2103253;28;20438;-71
2023/11/04 01:49:50;;;;;;;1.02;0.50;;;10.40;99.90;;;;;;2093667;28;20032;-71
2023/11/04 01:50:51;;;;;;;0.70;0.47;;;10.40;99.90;;;;;;2099270;28;20028;-71
2023/11/04 01:51:53;;;;;;;0.80;0.70;;;10.40;99.90;;;;;;2109745;28;20032;-70
2023/11/04 01:52:54;;;;;;;1.20;0.50;;;10.50;99.90;;;;;;2106648;28;20034;-71
2023/11/04 01:53:55;;;;;;;1.35;0.50;;;10.50;99.90;;;;;;2106318;28;20035;-72
2023/11/04 01:54:57;;;;;;;1.95;0.45;;;10.50;99.90;;;;;;2106399;28;20122;-71
2023/11/04 01:55:59;;;;;;;1.17;0.55;;;10.50;99.90;;;;;;2107130;28;20035;-71
2023/11/04 01:57:00;;;;;;;0.40;0.40;;;10.50;99.90;;;;;;2108529;28;20035;-72
2023/11/04 01:58:01;;;;;;;0.77;0.73;;;10.50;99.90;;;;;;2109483;28;20105;-69
2023/11/04 01:59:03;;;;;;;0.77;0.50;;;10.60;99.90;;;;;;2105413;28;20028;-70
2023/11/04 02:00:05;;;;;;;0.55;0.35;;;10.50;99.90;;;;;;2101711;28;20028;-70
2023/11/04 02:01:07;;;;;;;0.60;0.40;;;10.60;99.90;;;;;;2093943;28;20408;-70
2023/11/04 02:02:11;;;;;;;0.38;0.30;;;10.50;99.90;;;;;;2103254;28;20032;-70
2023/11/04 02:03:12;;;;;;;1.35;0.60;;;10.60;99.90;;;;;;2106307;28;20031;-70
2023/11/04 02:04:12;;;;;;;1.33;0.45;;;10.60;99.90;;;;;;2107408;28;20781;-71
2023/11/04 02:05:13;;;;;;;0.80;0.47;;;10.60;99.90;;;;;;2106226;28;20519;-71
2023/11/04 02:06:14;;;;;;;1.60;0.57;;;10.60;99.90;;;;;;2107762;28;20036;-71
2023/11/04 02:07:15;;;;;;;0.50;0.20;;;10.60;99.90;;;;;;2097255;28;20475;-71
2023/11/04 02:08:15;;;;;;;0.52;0.52;;;10.60;99.90;;;;;;2099227;28;20047;-71
2023/11/04 02:09:17;;;;;;;0.47;0.30;;;10.70;99.90;;;;;;2106115;28;20020;-71
2023/11/04 02:10:18;;;;;;;0.50;0.40;;;10.70;99.90;;;;;;2106253;28;20016;-71
2023/11/04 02:11:19;;;;;;;1.60;0.40;;;10.70;99.90;;;;;;2107315;28;20046;-71
2023/11/04 02:12:22;;;;;;;1.02;0.47;;;10.70;99.90;;;;;;2106570;28;20023;-71
2023/11/04 02:13:23;;;;;;;0.95;0.40;;;10.70;99.90;;;;;;2106440;28;20024;-71
2023/11/04 02:14:23;;;;;;;1.52;0.40;;;10.70;99.90;;;;;;2107247;28;20024;-71
2023/11/04 02:15:24;;;;;;;0.45;0.30;;;10.70;99.90;;;;;;2101843;28;20619;-70
2023/11/04 02:16:25;;;;;;;0.30;0.30;;;10.70;99.90;;;;;;2101801;28;20020;-69
2023/11/04 02:17:25;;;;;;;2.35;0.40;;;10.70;99.90;;;;;;2108049;28;20096;-70
2023/11/04 02:18:27;;;;;;;0.60;0.40;;;10.70;99.90;;;;;;2101214;28;20502;-71
2023/11/04 02:19:28;;;;;;;0.20;0.20;;;10.70;99.90;;;;;;2101030;28;20016;-71
2023/11/04 02:20:30;;;;;;;0.38;0.30;;;10.70;99.90;;;;;;2106247;28;20020;-71
2023/11/04 02:21:31;;;;;;;0.50;0.50;;;10.70;99.90;;;;;;2106421;28;20027;-70
2023/11/04 02:22:31;;;;;;;0.63;0.40;;;10.70;99.90;;;;;;2105951;28;21595;-71
2023/11/04 02:23:32;;;;;;;1.08;0.43;;;10.70;99.90;;;;;;2107577;28;20088;-71
2023/11/04 02:24:33;;;;;;;0.90;0.40;;;10.70;99.90;;;;;;2108703;28;20024;-71
2023/11/04 02:25:34;;;;;;;0.57;0.57;;;10.70;99.90;;;;;;2107594;28;20460;-70
2023/11/04 02:26:35;;;;;;;0.65;0.30;;;10.70;99.90;;;;;;2106772;28;20035;-71
2023/11/04 02:27:35;;;;;;;2.25;0.65;;;10.80;99.90;;;;;;2107443;28;20066;-70
2023/11/04 02:28:36;;;;;;;0.65;0.65;;;10.80;99.90;;;;;;2106449;28;20585;-69
2023/11/04 02:29:38;;;;;;;1.33;0.63;;;10.80;99.90;;;;;;2107661;28;20471;-71
2023/11/04 02:30:39;;;;;;;1.38;0.80;;;10.80;99.90;;;;;;2108420;28;20028;-71
2023/11/04 02:31:39;;;;;;;1.40;0.88;;;10.80;99.90;;;;;;2097465;28;20080;-70
2023/11/04 02:32:40;;;;;;;1.38;0.80;;;10.80;99.90;;;;;;2098085;28;20060;-71
2023/11/04 02:33:41;;;;;;;1.15;0.40;;;10.80;99.90;;;;;;2106045;28;20024;-72
2023/11/04 02:34:41;;;;;;;2.17;0.68;;;10.80;99.90;;;;;;2105841;28;20028;-70
2023/11/04 02:35:45;;;;;;;0.35;0.22;;;10.80;99.90;;;;;;2099579;28;20043;-71
2023/11/04 02:36:45;;;;;;;0.95;0.28;;;10.80;99.90;;;;;;2092199;28;20089;-70
2023/11/04 02:37:47;;;;;;;0.70;0.40;;;10.80;99.90;;;;;;2099254;28;20038;-70
2023/11/04 02:38:48;;;;;;;0.73;0.28;;;10.80;99.90;;;;;;2108364;28;20031;-71
2023/11/04 02:39:48;;;;;;;2.03;0.50;;;10.80;99.90;;;;;;2102581;28;20099;-70
2023/11/04 02:40:49;;;;;;;0.50;0.40;;;10.80;99.90;;;;;;2099930;28;20031;-70
2023/11/04 02:41:49;;;;;;;0.95;0.35;;;10.80;99.90;;;;;;2100552;28;20415;-71
2023/11/04 02:42:50;;;;;;;0.35;0.20;;;10.90;99.90;;;;;;2099688;28;20021;-72
2023/11/04 02:43:50;;;;;;;0.65;0.40;;;10.90;99.90;;;;;;2108345;28;20031;-71
2023/11/04 02:44:51;;;;;;;0.52;0.40;;;10.90;99.90;;;;;;2106056;28;20020;-71
2023/11/04 02:45:51;;;;;;;0.40;0.30;;;10.90;99.90;;;;;;2097857;28;20067;-71
2023/11/04 02:46:52;;;;;;;1.02;0.40;;;10.90;99.90;;;;;;2093786;28;20025;-71
2023/11/04 02:47:53;;;;;;;0.30;0.30;;;10.90;99.90;;;;;;2100205;28;20430;-71
2023/11/04 02:48:53;;;;;;;0.30;0.30;;;11.00;99.90;;;;;;2106462;28;20044;-71
2023/11/04 02:49:54;;;;;;;0.50;0.38;;;11.00;99.90;;;;;;2105900;28;20032;-70
2023/11/04 02:50:54;;;;;;;2.22;0.45;;;11.00;99.90;;;;;;2106609;28;20031;-71
2023/11/04 02:51:55;;;;;;;1.02;0.43;;;11.00;99.90;;;;;;2108338;28;20040;-72
2023/11/04 02:52:55;;;;;;;0.75;0.52;;;10.90;99.90;;;;;;2109155;28;20426;-71
2023/11/04 02:53:56;;;;;;;1.95;0.40;;;11.00;99.90;;;;;;2104938;28;20028;-72
2023/11/04 02:54:57;;;;;;;2.40;0.38;;;11.00;99.90;;;;;;2107634;28;20141;-70
2023/11/04 02:55:57;;;;;;;1.35;0.40;;;11.00;99.90;;;;;;2110777;28;20032;-70
2023/11/04 02:56:58;;;;;;;0.20;0.20;;;11.00;99.90;;;;;;2108464;28;20044;-71
2023/11/04 02:57:58;;;;;;;1.95;0.30;;;11.00;99.90;;;;;;2105401;28;20630;-70
2023/11/04 02:58:59;;;;;;;0.40;0.40;;;11.00;99.90;;;;;;2107939;28;20641;-70
2023/11/04 02:59:59;;;;;;;1.33;0.68;;;11.00;99.90;;;;;;2107494;28;20035;-70
2023/11/04 03:01:00;;;;;;;1.02;0.35;;;11.00;99.90;;;;;;2107595;28;20413;-70
2023/11/04 03:02:01;;;;;;;0.35;0.22;;;11.00;99.90;;;;;;2106544;28;20352;-69
2023/11/04 03:03:02;;;;;;;1.45;0.30;;;11.00;99.90;;;;;;2101745;28;20120;-71
2023/11/04 03:04:06;;;;;;;0.55;0.30;;;11.00;99.90;;;;;;2103402;28;20024;-70
2023/11/04 03:05:07;;;;;;;0.30;0.20;;;11.00;99.90;;;;;;2105989;28;20085;-69
2023/11/04 03:06:08;;;;;;;1.48;0.40;;;11.10;99.90;;;;;;2107287;28;20058;-69
2023/11/04 03:07:09;;;;;;;1.65;0.30;;;11.00;99.90;;;;;;2107134;28;20058;-70
2023/11/04 03:08:10;;;;;;;0.45;0.40;;;11.10;99.90;;;;;;2106222;28;20020;-71
2023/11/04 03:09:11;;;;;;;0.82;0.52;;;11.10;99.90;;;;;;2097548;28;20036;-69
2023/11/04 03:10:11;;;;;;;0.52;0.50;;;11.10;99.90;;;;;;2097345;28;20517;-71
2023/11/04 03:11:13;;;;;;;0.43;0.20;;;11.10;99.90;;;;;;2106649;28;20492;-70
2023/11/04 03:12:13;;;;;;;0.95;0.40;;;11.10;99.90;;;;;;2100183;28;20077;-70
2023/11/04 03:13:14;;;;;;;0.20;0.20;;;11.10;99.90;;;;;;2098010;28;20021;-70
2023/11/04 03:14:14;;;;;;;0.55;0.40;;;11.10;99.90;;;;;;2105527;28;20463;-70
2023/11/04 03:15:16;;;;;;;0.85;0.28;;;11.10;99.90;;;;;;2107616;28;20020;-70
2023/11/04 03:16:19;;;;;;;1.63;0.35;;;11.10;99.90;;;;;;2106423;28;20032;-70
2023/11/04 03:17:19;;;;;;;0.52;0.38;;;11.10;99.90;;;;;;2108098;28;20039;-69
2023/11/04 03:18:20;;;;;;;0.20;0.20;;;11.10;99.90;;;;;;2106415;28;20008;-71
2023/11/04 03:19:21;;;;;;;0.50;0.50;;;11.10;99.90;;;;;;2100856;28;20012;-70
2023/11/04 03:20:21;;;;;;;1.13;0.40;;;11.10;99.90;;;;;;2091124;28;20028;-71
2023/11/04 03:21:22;;;;;;;0.70;0.40;;;11.10;99.90;;;;;;2098563;28;20025;-71
2023/11/04 03:22:22;;;;;;;0.50;0.30;;;11.10;99.90;;;;;;2106851;28;20103;-71
2023/11/04 03:23:23;;;;;;;0.30;0.30;;;11.10;99.90;;;;;;2106057;28;20024;-70
2023/11/04 03:24:23;;;;;;;0.40;0.25;;;11.10;99.90;;;;;;2099047;28;20499;-69
2023/11/04 03:25:24;;;;;;;2.85;0.57;;;11.10;99.90;;;;;;2098444;28;20036;-70
2023/11/04 03:26:25;;;;;;;0.80;0.38;;;11.10;99.90;;;;;;2105596;28;20073;-69
2023/11/04 03:27:25;;;;;;;0.50;0.30;;;11.10;99.90;;;;;;2107981;28;20024;-70
2023/11/04 03:28:26;;;;;;;0.47;0.40;;;11.10;99.90;;;;;;2106943;28;20032;-71
2023/11/04 03:29:27;;;;;;;0.60;0.35;;;11.10;99.90;;;;;;2108769;28;20088;-70
2023/11/04 03:30:28;;;;;;;0.73;0.30;;;11.20;99.90;;;;;;2108020;28;20236;-70
2023/11/04 03:31:30;;;;;;;0.40;0.40;;;11.20;99.90;;;;;;2107621;28;20030;-70
2023/11/04 03:32:31;;;;;;;1.42;0.40;;;11.10;99.90;;;;;;2108878;28;20024;-69
2023/11/04 03:33:32;;;;;;;0.55;0.40;;;11.10;99.90;;;;;;2105740;28;20478;-70
2023/11/04 03:34:32;;;;;;;0.88;0.35;;;11.20;99.90;;;;;;2099854;28;20039;-70
2023/11/04 03:35:33;;;;;;;0.65;0.50;;;11.20;99.90;;;;;;2102512;28;20114;-70
2023/11/04 03:36:34;;;;;;;2.25;0.63;;;11.10;99.90;;;;;;2108792;28;20058;-70
2023/11/04 03:37:34;;;;;;;0.43;0.40;;;11.20;99.90;;;;;;2098285;28;20044;-71
2023/11/04 03:38:35;;;;;;;0.60;0.30;;;11.20;99.90;;;;;;2092224;28;20044;-70
2023/11/04 03:39:36;;;;;;;0.68;0.40;;;11.20;99.90;;;;;;2100695;28;20035;-70
2023/11/04 03:40:36;;;;;;;0.95;0.40;;;11.20;99.90;;;;;;2100570;28;20024;-69
2023/11/04 03:41:37;;;;;;;0.88;0.30;;;11.20;99.90;;;;;;2102514;28;20081;-70
2023/11/04 03:42:37;;;;;;;1.70;0.55;;;11.20;99.90;;;;;;2107859;28;20028;-70
2023/11/04 03:43:38;;;;;;;0.77;0.50;;;11.20;99.90;;;;;;2105917;28;20034;-70
2023/11/04 03:44:38;;;;;;;1.02;0.40;;;11.20;99.90;;;;;;2107429;28;20110;-69
2023/11/04 03:45:39;;;;;;;1.98;0.63;;;11.20;99.90;;;;;;2107136;28;20030;-70
2023/11/04 03:46:39;;;;;;;0.52;0.52;;;11.20;99.90;;;;;;2106234;28;20396;-70
2023/11/04 03:47:40;;;;;;;0.60;0.40;;;11.20;99.90;;;;;;2107598;28;20028;-70
2023/11/04 03:48:41;;;;;;;0.38;0.38;;;11.20;99.90;;;;;;2106673;28;20555;-70
2023/11/04 03:49:41;;;;;;;1.05;0.70;;;11.20;99.90;;;;;;2106885;28;20122;-71
2023/11/04 03:50:42;;;;;;;0.55;0.38;;;11.20;99.90;;;;;;2106401;28;20047;-69
2023/11/04 03:51:43;;;;;;;0.80;0.40;;;11.20;99.90;;;;;;2108122;28;20084;-70
2023/11/04 03:52:44;;;;;;;0.50;0.20;;;11.30;99.90;;;;;;2106767;28;20042;-70
2023/11/04 03:53:44;;;;;;;0.98;0.50;;;11.20;99.90;;;;;;2105334;28;20059;-71
2023/11/04 03:54:45;;;;;;;1.92;0.40;;;11.30;99.90;;;;;;2106215;28;20115;-70
2023/11/04 03:55:46;;;;;;;1.92;0.50;;;11.20;99.90;;;;;;2097489;28;20021;-70
2023/11/04 03:56:46;;;;;;;1.60;0.45;;;11.20;99.90;;;;;;2099575;28;20078;-70
2023/11/04 03:57:47;;;;;;;0.45;0.40;;;11.20;99.90;;;;;;2105701;28;20111;-69
2023/11/04 03:58:47;;;;;;;0.65;0.50;;;11.20;99.90;;;;;;2100937;28;20024;-70
2023/11/04 03:59:48;;;;;;;0.40;0.40;;;11.20;99.90;;;;;;2103820;28;20035;-70
2023/11/04 04:00:49;;;;;;;0.47;0.30;;;11.20;99.90;;;;;;2108939;28;20031;-71
2023/11/04 04:01:49;;;;;;;0.47;0.47;;;11.20;99.90;;;;;;2106578;28;20364;-69
2023/11/04 04:02:51;;;;;;;1.58;0.60;;;11.20;99.90;;;;;;2109432;28;20043;-71
2023/11/04 04:03:51;;;;;;;2.00;0.65;;;11.20;99.90;;;;;;2107474;28;20352;-70
2023/11/04 04:04:52;;;;;;;1.30;0.50;;;11.20;99.90;;;;;;2107771;28;20054;-70
2023/11/04 04:05:52;;;;;;;1.33;0.40;;;11.20;99.90;;;;;;2106920;28;20020;-71
2023/11/04 04:06:53;;;;;;;0.70;0.50;;;11.20;99.90;;;;;;2100742;28;20047;-70
2023/11/04 04:07:54;;;;;;;0.85;0.40;;;11.30;99.90;;;;;;2099145;28;20495;-70
2023/11/04 04:08:54;;;;;;;1.13;0.50;;;11.20;99.90;;;;;;2102255;28;20020;-70
2023/11/04 04:09:55;;;;;;;0.55;0.30;;;11.30;99.90;;;;;;2096205;28;20029;-70
2023/11/04 04:10:55;;;;;;;1.20;0.40;;;11.30;99.90;;;;;;2100157;28;20035;-71
2023/11/04 04:11:57;;;;;;;0.47;0.45;;;11.30;99.90;;;;;;2109352;28;20016;-70
2023/11/04 04:12:57;;;;;;;0.68;0.40;;;11.30;99.90;;;;;;2108613;28;20027;-70
2023/11/04 04:13:58;;;;;;;1.17;0.50;;;11.30;99.90;;;;;;2107304;28;20534;-70
2023/11/04 04:14:59;;;;;;;1.15;0.50;;;11.30;99.90;;;;;;2108763;28;20047;-69
2023/11/04 04:16:00;;;;;;;1.02;0.40;;;11.30;99.90;;;;;;2110839;28;20374;-71
2023/11/04 04:17:01;;;;;;;0.55;0.40;;;11.30;99.90;;;;;;2108146;28;20043;-70
2023/11/04 04:18:02;;;;;;;1.30;0.40;;;11.30;99.90;;;;;;2109582;28;20505;-70
2023/11/04 04:19:02;;;;;;;0.77;0.40;;;11.30;99.90;;;;;;2107761;28;20398;-70
2023/11/04 04:20:05;;;;;;;0.38;0.30;;;11.30;99.90;;;;;;2106974;28;20653;-70
2023/11/04 04:21:06;;;;;;;0.57;0.30;;;11.30;99.90;;;;;;2106498;28;20031;-70
2023/11/04 04:22:07;;;;;;;0.50;0.50;;;11.30;99.90;;;;;;2107091;28;20143;-69
2023/11/04 04:23:08;;;;;;;0.52;0.40;;;11.30;99.90;;;;;;2107327;28;20027;-69
2023/11/04 04:24:09;;;;;;;0.52;0.50;;;11.30;99.90;;;;;;2108527;28;20041;-70
2023/11/04 04:25:10;;;;;;;0.75;0.38;;;11.30;99.90;;;;;;2106893;28;20118;-70
2023/11/04 04:26:19;;;;;;;0.68;0.32;;;11.30;99.90;;;;;;2107870;28;20026;-71
2023/11/04 04:27:20;;;;;;;0.77;0.30;;;11.30;99.90;;;;;;2109151;28;20035;-69
2023/11/04 04:28:21;;;;;;;1.08;0.38;;;11.30;99.90;;;;;;2108856;28;20020;-71
2023/11/04 04:29:23;;;;;;;1.15;0.65;;;11.30;99.90;;;;;;2107435;28;20065;-69
2023/11/04 04:30:24;;;;;;;0.95;0.30;;;11.30;99.90;;;;;;2109332;28;20080;-70
2023/11/04 04:31:27;;;;;;;0.82;0.40;;;11.30;99.90;;;;;;2108696;28;20157;-68
2023/11/04 04:32:28;;;;;;;0.82;0.40;;;11.30;99.90;;;;;;2106195;28;20024;-70
2023/11/04 04:33:28;;;;;;;0.65;0.40;;;11.30;99.90;;;;;;2100969;28;20606;-70
2023/11/04 04:34:29;;;;;;;1.10;0.60;;;11.30;99.90;;;;;;2104370;28;20024;-69
2023/11/04 04:35:30;;;;;;;0.35;0.35;;;11.30;99.90;;;;;;2109947;28;20054;-70
2023/11/04 04:36:30;;;;;;;1.40;0.60;;;11.30;99.90;;;;;;2107630;28;20017;-70
2023/11/04 04:37:31;;;;;;;0.50;0.32;;;11.30;99.90;;;;;;2108251;28;20485;-69
2023/11/04 04:38:31;;;;;;;2.22;0.40;;;11.30;99.90;;;;;;2107684;28;20051;-72
2023/11/04 04:39:32;;;;;;;0.63;0.40;;;11.30;99.90;;;;;;2106945;28;20060;-69
2023/11/04 04:40:32;;;;;;;1.95;0.50;;;11.30;99.90;;;;;;2107636;28;20020;-72
2023/11/04 04:41:33;;;;;;;0.85;0.60;;;11.30;99.90;;;;;;2108180;28;20497;-72
2023/11/04 04:42:33;;;;;;;1.13;0.60;;;11.30;99.90;;;;;;2108012;28;20020;-72
2023/11/04 04:43:34;;;;;;;1.98;0.80;;;11.30;99.90;;;;;;2105935;28;20039;-72
2023/11/04 04:44:34;;;;;;;1.15;0.50;;;11.30;99.90;;;;;;2107888;28;20387;-71
2023/11/04 04:45:35;;;;;;;2.72;0.43;;;11.30;99.90;;;;;;2106980;28;20058;-72
2023/11/04 04:46:41;;;;;;;1.98;0.30;;;11.30;99.90;;;;;;2110180;28;20024;-72
2023/11/04 04:47:42;;;;;;;0.73;0.40;;;11.30;99.90;;;;;;2108811;28;20032;-72
2023/11/04 04:48:43;;;;;;;1.77;0.57;;;11.30;99.90;;;;;;2107640;28;20031;-72
2023/11/04 04:49:44;;;;;;;2.38;0.45;;;11.30;99.90;;;;;;2106427;28;20028;-71
2023/11/04 04:50:45;;;;;;;1.05;0.80;;;11.40;99.90;;;;;;2108730;28;20027;-73
2023/11/04 04:51:46;;;;;;;0.88;0.52;;;11.30;99.90;;;;;;2108983;28;20028;-70
2023/11/04 04:52:47;;;;;;;2.17;0.55;;;11.30;99.90;;;;;;2107709;28;20594;-72
2023/11/04 04:53:47;;;;;;;0.90;0.55;;;11.40;99.90;;;;;;2109032;28;20024;-71
2023/11/04 04:54:48;;;;;;;1.15;0.40;;;11.40;99.90;;;;;;2110330;27;20038;-72
2023/11/04 04:55:48;;;;;;;2.35;0.60;;;11.40;99.90;;;;;;2108113;28;20023;-71
2023/11/04 04:56:49;;;;;;;1.00;0.75;;;11.40;99.90;;;;;;2108433;28;20055;-71
2023/11/04 04:57:50;;;;;;;1.08;0.50;;;11.30;99.90;;;;;;2107835;28;20020;-72
2023/11/04 04:58:51;;;;;;;0.90;0.50;;;11.40;99.90;;;;;;2098130;28;20112;-71
2023/11/04 04:59:51;;;;;;;0.85;0.68;;;11.40;99.90;;;;;;2099619;28;20093;-73
2023/11/04 05:00:52;;;;;;;1.55;0.50;;;11.40;99.90;;;;;;2105776;28;20028;-72
2023/11/04 05:01:52;;;;;;;0.85;0.43;;;11.40;99.90;;;;;;2108737;28;20474;-72
2023/11/04 05:02:53;;;;;;;1.42;0.52;;;11.30;99.90;;;;;;2107202;28;20099;-72
2023/11/04 05:03:53;;;;;;;1.25;0.60;;;11.40;99.90;;;;;;2107527;28;20528;-72
2023/11/04 05:04:54;;;;;;;0.90;0.35;;;11.40;99.90;;;;;;2102894;28;20020;-71
2023/11/04 05:05:54;;;;;;;1.48;0.60;;;11.40;99.90;;;;;;2097827;28;20462;-72
2023/11/04 05:06:56;;;;;;;0.82;0.50;;;11.40;99.90;;;;;;2101749;28;20036;-71
2023/11/04 05:07:56;;;;;;;1.20;0.52;;;11.40;99.90;;;;;;2108173;28;20104;-71
2023/11/04 05:08:57;;;;;;;1.00;0.50;;;11.40;99.90;;;;;;2107929;28;20467;-71
2023/11/04 05:09:57;;;;;;;0.70;0.40;;;11.40;99.90;;;;;;2106816;28;20106;-72
2023/11/04 05:10:58;;;;;;;1.55;0.50;;;11.40;99.90;;;;;;2108533;28;20093;-70
2023/11/04 05:11:58;;;;;;;0.40;0.40;;;11.40;99.90;;;;;;2107942;28;20100;-70
2023/11/04 05:12:59;;;;;;;1.17;0.50;;;11.40;99.90;;;;;;2110231;28;20059;-72
2023/11/04 05:14:00;;;;;;;1.35;0.40;;;11.40;99.90;;;;;;2108199;28;20016;-72
2023/11/04 05:15:00;;;;;;;1.95;0.90;;;11.40;99.90;;;;;;2107733;28;20058;-71
2023/11/04 05:16:01;;;;;;;1.33;0.50;;;11.40;99.90;;;;;;2108157;28;20035;-71
2023/11/04 05:17:02;;;;;;;0.95;0.52;;;11.40;99.90;;;;;;2098164;28;20028;-70